createdAt,value
2018-07-22T00:05:01.829Z,5.40
2018-07-22T00:10:05.949Z,5.90
2018-07-22T00:15:09.023Z,5.67
2018-07-22T00:20:12.134Z,5.80
2018-07-22T00:25:15.654Z,5.87
2018-07-22T00:30:18.710Z,5.57
2018-07-22T00:35:21.754Z,6.30
2018-07-22T00:40:24.794Z,5.53
2018-07-22T00:45:27.821Z,6.20
2018-07-22T00:50:30.863Z,5.87
2018-07-22T00:55:33.935Z,5.40
2018-07-22T01:00:36.961Z,5.90
2018-07-22T01:05:40.009Z,5.30
2018-07-22T01:10:43.493Z,6.20
2018-07-22T01:15:46.530Z,6.03
2018-07-22T01:20:49.488Z,5.83
2018-07-22T01:25:52.527Z,5.97
2018-07-22T01:30:55.578Z,6.07
2018-07-22T01:35:58.590Z,5.67
2018-07-22T01:41:01.639Z,5.90
2018-07-22T01:46:04.679Z,5.60
2018-07-22T01:51:08.020Z,6.10
2018-07-22T01:56:11.067Z,6.63
2018-07-22T02:01:14.110Z,6.50
2018-07-22T02:06:17.177Z,7.03
2018-07-22T02:11:20.208Z,6.87
2018-07-22T02:16:23.278Z,6.33
2018-07-22T02:21:26.147Z,5.90
2018-07-22T02:26:29.217Z,6.50
2018-07-22T02:31:32.238Z,6.20
2018-07-22T02:36:35.250Z,6.10
2018-07-22T02:41:38.269Z,6.30
2018-07-22T02:46:41.299Z,6.40
2018-07-22T02:51:44.352Z,6.03
2018-07-22T02:56:47.394Z,6.87
2018-07-22T03:01:50.432Z,6.60
2018-07-22T03:06:53.487Z,6.70
2018-07-22T03:11:56.537Z,6.77
2018-07-22T03:16:59.558Z,6.60
2018-07-22T03:22:02.574Z,6.87
2018-07-22T03:27:06.011Z,6.13
2018-07-22T03:32:09.138Z,7.03
2018-07-22T03:37:12.148Z,6.30
2018-07-22T03:42:15.195Z,6.43
2018-07-22T03:47:18.238Z,8.10
2018-07-22T03:52:21.275Z,7.30
2018-07-22T03:57:24.314Z,6.20
2018-07-22T04:02:27.342Z,7.07
2018-07-22T04:07:30.395Z,7.70
2018-07-22T04:12:33.628Z,7.60
2018-07-22T04:17:36.720Z,7.07
2018-07-22T04:22:39.739Z,7.87
2018-07-22T04:27:42.740Z,7.10
2018-07-22T04:32:45.834Z,7.73
2018-07-22T04:37:48.945Z,7.17
2018-07-22T04:42:52.267Z,7.10
2018-07-22T04:47:55.279Z,7.90
2018-07-22T04:52:58.315Z,6.97
2018-07-22T04:58:01.352Z,6.53
2018-07-22T05:03:04.382Z,6.43
2018-07-22T05:08:07.429Z,7.20
2018-07-22T05:13:10.460Z,7.47
2018-07-22T05:18:13.497Z,7.47
2018-07-22T05:23:16.567Z,6.00
2018-07-22T05:28:19.676Z,7.33
2018-07-22T05:33:22.730Z,7.00
2018-07-22T05:38:25.754Z,5.97
2018-07-22T05:43:28.938Z,6.40
2018-07-22T05:48:31.990Z,5.90
2018-07-22T05:53:35.093Z,5.57
2018-07-22T05:58:38.149Z,6.87
2018-07-22T06:03:41.153Z,6.57
2018-07-22T06:08:44.162Z,7.97
2018-07-22T06:13:47.201Z,7.17
2018-07-22T06:18:50.205Z,7.60
2018-07-22T06:23:53.355Z,7.10
2018-07-22T06:28:56.458Z,7.80
2018-07-22T06:33:59.410Z,7.40
2018-07-22T06:39:02.456Z,6.33
2018-07-22T06:44:05.582Z,8.13
2018-07-22T06:49:08.845Z,6.43
2018-07-22T06:54:11.874Z,6.57
2018-07-22T06:59:14.955Z,6.00
2018-07-22T07:04:18.259Z,6.73
2018-07-22T07:09:21.307Z,7.10
2018-07-22T07:14:24.397Z,6.37
2018-07-22T07:19:30.055Z,6.80
2018-07-22T07:24:33.394Z,6.33
2018-07-22T07:29:36.798Z,5.80
2018-07-22T07:34:40.282Z,6.50
2018-07-22T07:39:43.318Z,6.40
2018-07-22T07:44:46.764Z,6.30
2018-07-22T07:49:49.939Z,6.37
2018-07-22T07:54:53.082Z,6.30
2018-07-22T07:59:56.126Z,6.00
2018-07-22T08:04:59.212Z,6.13
2018-07-22T08:10:02.298Z,5.70
2018-07-22T08:15:05.770Z,5.37
2018-07-22T08:20:08.806Z,4.77
2018-07-22T08:25:11.851Z,5.47
2018-07-22T08:30:14.914Z,5.77
2018-07-22T08:35:17.967Z,5.73
2018-07-22T08:40:20.983Z,4.90
2018-07-22T08:45:24.081Z,4.97
2018-07-22T08:50:27.094Z,4.80
2018-07-22T08:55:30.139Z,5.40
2018-07-22T09:00:33.178Z,4.90
2018-07-22T09:05:36.290Z,5.00
2018-07-22T09:10:39.297Z,5.67
2018-07-22T09:15:42.384Z,4.70
2018-07-22T09:20:45.609Z,5.40
2018-07-22T09:25:48.606Z,5.50
2018-07-22T09:30:51.630Z,5.80
2018-07-22T09:35:54.670Z,5.53
2018-07-22T09:40:57.622Z,5.60
2018-07-22T09:46:00.635Z,5.53
2018-07-22T09:51:03.637Z,5.80
2018-07-22T09:56:06.678Z,5.57
2018-07-22T10:01:09.714Z,6.43
2018-07-22T10:06:12.745Z,6.43
2018-07-22T10:11:15.785Z,5.77
2018-07-22T10:16:18.905Z,6.47
2018-07-22T10:21:24.900Z,5.80
2018-07-22T10:26:28.137Z,5.53
2018-07-22T10:31:31.130Z,6.77
2018-07-22T10:36:34.142Z,6.30
2018-07-22T10:41:37.194Z,6.03
2018-07-22T10:46:40.247Z,6.87
2018-07-22T10:51:43.248Z,6.77
2018-07-22T10:56:46.385Z,6.60
2018-07-22T11:01:49.515Z,6.00
2018-07-22T11:06:52.578Z,6.57
2018-07-22T11:11:55.627Z,6.47
2018-07-22T11:16:58.630Z,6.47
2018-07-22T11:22:01.672Z,5.93
2018-07-22T11:27:04.762Z,5.90
2018-07-22T11:32:08.218Z,6.40
2018-07-22T11:37:11.258Z,6.73
2018-07-22T11:42:14.278Z,6.10
2018-07-22T11:47:17.280Z,6.43
2018-07-22T11:52:20.281Z,6.63
2018-07-22T11:57:23.457Z,5.93
2018-07-22T12:02:26.503Z,6.43
2018-07-22T12:07:29.864Z,6.70
2018-07-22T12:12:33.021Z,7.17
2018-07-22T12:17:36.117Z,6.57
2018-07-22T12:22:39.323Z,5.83
2018-07-22T12:27:42.403Z,6.97
2018-07-22T12:32:45.454Z,6.77
2018-07-22T12:37:48.498Z,7.40
2018-07-22T12:42:51.515Z,6.53
2018-07-22T12:47:54.517Z,6.87
2018-07-22T12:52:57.744Z,6.23
2018-07-22T12:58:00.825Z,5.70
2018-07-22T13:03:03.839Z,5.80
2018-07-22T13:08:07.104Z,6.57
2018-07-22T13:13:10.194Z,8.17
2018-07-22T13:18:13.230Z,6.40
2018-07-22T13:23:16.279Z,6.30
2018-07-22T13:28:19.315Z,6.67
2018-07-22T13:33:22.357Z,6.80
2018-07-22T13:38:25.574Z,6.60
2018-07-22T13:43:28.498Z,6.20
2018-07-22T13:48:31.545Z,6.13
2018-07-22T13:53:34.554Z,5.57
2018-07-22T13:58:37.626Z,6.30
2018-07-22T14:03:40.703Z,6.70
2018-07-22T14:08:43.738Z,6.47
2018-07-22T14:13:46.879Z,7.03
2018-07-22T14:18:49.909Z,6.83
2018-07-22T14:23:52.956Z,6.67
2018-07-22T14:28:55.956Z,6.60
2018-07-22T14:33:58.991Z,5.57
2018-07-22T14:39:02.046Z,6.03
2018-07-22T14:44:05.063Z,6.50
2018-07-22T14:49:08.199Z,7.03
2018-07-22T14:54:11.291Z,6.30
2018-07-22T14:59:14.334Z,6.70
2018-07-22T15:04:17.425Z,7.47
2018-07-22T15:09:20.450Z,6.40
2018-07-22T15:14:23.498Z,5.97
2018-07-22T15:19:26.513Z,7.40
2018-07-22T15:24:29.762Z,6.43
2018-07-22T15:29:32.892Z,7.67
2018-07-22T15:34:36.118Z,6.27
2018-07-22T15:39:39.150Z,6.60
2018-07-22T15:44:42.350Z,7.43
2018-07-22T15:49:45.343Z,6.43
2018-07-22T15:54:48.454Z,6.57
2018-07-22T15:59:51.454Z,7.10
2018-07-22T16:04:54.607Z,7.10
2018-07-22T16:09:57.657Z,6.70
2018-07-22T16:15:00.784Z,6.57
2018-07-22T16:20:03.854Z,6.93
2018-07-22T16:25:06.966Z,6.80
2018-07-22T16:30:09.975Z,6.70
2018-07-22T16:35:13.028Z,6.90
2018-07-22T16:40:16.087Z,7.13
2018-07-22T16:45:19.199Z,7.17
2018-07-22T16:50:22.233Z,7.10
2018-07-22T16:55:25.294Z,6.80
2018-07-22T17:00:28.303Z,6.53
2018-07-22T17:05:31.335Z,6.00
2018-07-22T17:10:34.846Z,7.60
2018-07-22T17:15:37.878Z,7.00
2018-07-22T17:20:40.964Z,7.20
2018-07-22T17:25:44.034Z,7.20
2018-07-22T17:30:47.179Z,7.23
2018-07-22T17:35:50.293Z,6.97
2018-07-22T17:40:53.458Z,7.50
2018-07-22T17:45:56.520Z,6.90
2018-07-22T17:50:59.674Z,8.00
2018-07-22T17:56:02.687Z,7.63
2018-07-22T18:01:05.786Z,7.30
2018-07-22T18:06:08.876Z,7.33
2018-07-22T18:11:12.878Z,6.70
2018-07-22T18:16:15.924Z,7.70
2018-07-22T18:21:19.359Z,6.90
2018-07-22T18:26:22.663Z,7.10
2018-07-22T18:31:25.703Z,7.90
2018-07-22T18:36:28.783Z,7.30
2018-07-22T18:41:31.918Z,6.67
2018-07-22T18:46:35.273Z,7.10
2018-07-22T18:51:38.330Z,8.23
2018-07-22T18:56:41.353Z,8.50
2018-07-22T19:01:44.491Z,8.63
2018-07-22T19:06:47.558Z,7.10
2018-07-22T19:11:50.642Z,8.17
2018-07-22T19:16:53.736Z,8.17
2018-07-22T19:21:56.897Z,10.03
2018-07-22T19:27:00.003Z,8.70
2018-07-22T19:32:03.104Z,8.73
2018-07-22T19:37:06.201Z,8.63
2018-07-22T19:42:09.263Z,8.30
2018-07-22T19:47:12.417Z,8.87
2018-07-22T19:52:15.605Z,8.00
2018-07-22T19:57:18.725Z,8.00
2018-07-22T20:02:21.801Z,7.87
2018-07-22T20:07:24.825Z,9.07
2018-07-22T20:12:27.973Z,9.03
2018-07-22T20:17:30.988Z,9.50
2018-07-22T20:22:34.046Z,9.30
2018-07-22T20:27:37.110Z,8.00
2018-07-22T20:32:40.215Z,9.17
2018-07-22T20:37:43.252Z,8.83
2018-07-22T20:42:46.366Z,8.10
2018-07-22T20:47:49.379Z,8.90
2018-07-22T20:52:52.424Z,8.00
2018-07-22T20:57:55.435Z,9.10
2018-07-22T21:02:58.369Z,8.73
2018-07-22T21:08:01.415Z,9.83
2018-07-22T21:13:11.851Z,9.73
2018-07-22T21:18:14.870Z,9.00
2018-07-22T21:23:18.251Z,9.27
2018-07-22T21:28:21.784Z,9.60
2018-07-22T21:33:25.194Z,8.83
2018-07-22T21:38:28.307Z,8.63
2018-07-22T21:43:31.336Z,9.37
2018-07-22T21:48:34.338Z,9.80
2018-07-22T21:53:37.375Z,9.67
2018-07-22T21:58:40.426Z,9.70
2018-07-22T22:03:43.435Z,9.20
2018-07-22T22:08:47.412Z,9.80
2018-07-22T22:13:50.458Z,9.80
2018-07-22T22:18:53.490Z,10.73
2018-07-22T22:23:56.644Z,10.30
2018-07-22T22:28:59.761Z,10.80
2018-07-22T22:34:02.887Z,11.10
2018-07-22T22:39:11.727Z,10.03
2018-07-22T22:44:14.869Z,10.53
2018-07-22T22:49:17.933Z,10.90
2018-07-22T22:54:21.022Z,9.27
2018-07-22T22:59:24.465Z,10.30
2018-07-22T23:04:27.497Z,10.70
2018-07-22T23:09:30.530Z,10.13
2018-07-22T23:14:33.678Z,11.37
2018-07-22T23:19:36.734Z,11.13
2018-07-22T23:24:39.851Z,10.60
2018-07-22T23:29:42.876Z,10.83
2018-07-22T23:34:45.984Z,10.80
2018-07-22T23:39:49.008Z,10.90
2018-07-22T23:44:52.096Z,10.80
2018-07-22T23:49:55.171Z,12.00
2018-07-22T23:54:58.311Z,11.67
